sensor_id;sensor_type;location;lat;lon;timestamp;temperature;humidity
12370;DHT22;6249;52.128;9.986;2023-02-25T00:02:20;4.50;99.90
12370;DHT22;6249;52.128;9.986;2023-02-25T00:05:45;4.60;99.90
12370;DHT22;6249;52.128;9.986;2023-02-25T00:09:07;4.60;99.90
12370;DHT22;6249;52.128;9.986;2023-02-25T00:12:33;4.70;99.90
12370;DHT22;6249;52.128;9.986;2023-02-25T00:15:59;4.70;99.90
12370;DHT22;6249;52.128;9.986;2023-02-25T00:19:24;4.70;99.90
12370;DHT22;6249;52.128;9.986;2023-02-25T00:22:48;4.70;99.90
12370;DHT22;6249;52.128;9.986;2023-02-25T00:26:08;4.70;99.90
12370;DHT22;6249;52.128;9.986;2023-02-25T00:29:33;4.70;99.90
12370;DHT22;6249;52.128;9.986;2023-02-25T00:32:54;4.70;99.90
12370;DHT22;6249;52.128;9.986;2023-02-25T00:36:20;4.80;99.90
12370;DHT22;6249;52.128;9.986;2023-02-25T00:39:42;4.80;99.90
12370;DHT22;6249;52.128;9.986;2023-02-25T00:43:02;4.70;99.90
12370;DHT22;6249;52.128;9.986;2023-02-25T00:46:27;4.70;99.90
12370;DHT22;6249;52.128;9.986;2023-02-25T00:49:48;4.70;99.90
12370;DHT22;6249;52.128;9.986;2023-02-25T00:53:08;4.70;99.90
12370;DHT22;6249;52.128;9.986;2023-02-25T00:56:29;4.80;99.90
12370;DHT22;6249;52.128;9.986;2023-02-25T00:59:52;4.80;99.90
12370;DHT22;6249;52.128;9.986;2023-02-25T01:03:15;4.80;99.90
12370;DHT22;6249;52.128;9.986;2023-02-25T01:06:38;4.70;99.90
12370;DHT22;6249;52.128;9.986;2023-02-25T01:10:01;4.70;99.90
12370;DHT22;6249;52.128;9.986;2023-02-25T01:13:21;4.60;99.90
12370;DHT22;6249;52.128;9.986;2023-02-25T01:16:48;4.60;99.90
12370;DHT22;6249;52.128;9.986;2023-02-25T01:20:12;4.60;99.90
12370;DHT22;6249;52.128;9.986;2023-02-25T01:23:39;4.50;99.90
12370;DHT22;6249;52.128;9.986;2023-02-25T01:27:04;4.50;99.90
12370;DHT22;6249;52.128;9.986;2023-02-25T01:30:25;4.50;99.90
12370;DHT22;6249;52.128;9.986;2023-02-25T01:33:45;4.50;99.90
12370;DHT22;6249;52.128;9.986;2023-02-25T01:37:08;4.60;99.90
12370;DHT22;6249;52.128;9.986;2023-02-25T01:40:29;4.50;99.90
12370;DHT22;6249;52.128;9.986;2023-02-25T01:47:27;4.30;99.90
12370;DHT22;6249;52.128;9.986;2023-02-25T01:50:55;4.20;99.90
12370;DHT22;6249;52.128;9.986;2023-02-25T01:54:18;4.30;99.90
12370;DHT22;6249;52.128;9.986;2023-02-25T01:57:42;4.30;99.90
12370;DHT22;6249;52.128;9.986;2023-02-25T02:01:07;4.20;99.90
12370;DHT22;6249;52.128;9.986;2023-02-25T02:04:30;4.20;99.90
12370;DHT22;6249;52.128;9.986;2023-02-25T02:07:51;4.20;99.90
12370;DHT22;6249;52.128;9.986;2023-02-25T02:11:12;4.30;99.90
12370;DHT22;6249;52.128;9.986;2023-02-25T02:14:38;4.40;99.90
12370;DHT22;6249;52.128;9.986;2023-02-25T02:18:02;4.40;99.90
12370;DHT22;6249;52.128;9.986;2023-02-25T02:32:35;4.40;99.90
12370;DHT22;6249;52.128;9.986;2023-02-25T02:43:28;4.40;99.90
12370;DHT22;6249;52.128;9.986;2023-02-25T02:46:59;4.40;99.90
12370;DHT22;6249;52.128;9.986;2023-02-25T02:50:32;4.50;99.90
12370;DHT22;6249;52.128;9.986;2023-02-25T02:53:55;4.50;99.90
12370;DHT22;6249;52.128;9.986;2023-02-25T02:57:20;4.50;99.90
12370;DHT22;6249;52.128;9.986;2023-02-25T03:00:46;4.40;99.90
12370;DHT22;6249;52.128;9.986;2023-02-25T03:04:14;4.50;99.90
12370;DHT22;6249;52.128;9.986;2023-02-25T03:07:42;4.40;99.90
12370;DHT22;6249;52.128;9.986;2023-02-25T03:11:07;4.60;99.90
12370;DHT22;6249;52.128;9.986;2023-02-25T03:14:27;4.40;99.90
12370;DHT22;6249;52.128;9.986;2023-02-25T03:17:53;4.40;99.90
12370;DHT22;6249;52.128;9.986;2023-02-25T03:21:21;5.30;99.90
12370;DHT22;6249;52.128;9.986;2023-02-25T03:25:09;4.30;99.90
12370;DHT22;6249;52.128;9.986;2023-02-25T03:28:36;4.30;99.90
12370;DHT22;6249;52.128;9.986;2023-02-25T03:32:08;4.30;99.90
12370;DHT22;6249;52.128;9.986;2023-02-25T03:35:36;4.30;99.90
12370;DHT22;6249;52.128;9.986;2023-02-25T03:39:06;4.30;99.90
12370;DHT22;6249;52.128;9.986;2023-02-25T03:42:34;4.40;99.90
12370;DHT22;6249;52.128;9.986;2023-02-25T03:45:58;4.30;99.90
12370;DHT22;6249;52.128;9.986;2023-02-25T03:49:27;4.30;99.90
12370;DHT22;6249;52.128;9.986;2023-02-25T03:52:52;4.50;99.90
12370;DHT22;6249;52.128;9.986;2023-02-25T03:56:13;4.40;99.90
12370;DHT22;6249;52.128;9.986;2023-02-25T03:59:36;4.40;99.90
12370;DHT22;6249;52.128;9.986;2023-02-25T04:02:57;4.40;99.90
12370;DHT22;6249;52.128;9.986;2023-02-25T04:06:21;4.40;99.90
12370;DHT22;6249;52.128;9.986;2023-02-25T04:09:42;4.40;99.90
12370;DHT22;6249;52.128;9.986;2023-02-25T04:13:02;4.40;99.90
12370;DHT22;6249;52.128;9.986;2023-02-25T04:16:25;4.40;99.90
12370;DHT22;6249;52.128;9.986;2023-02-25T04:19:45;4.40;99.90
12370;DHT22;6249;52.128;9.986;2023-02-25T04:23:06;4.40;99.90
12370;DHT22;6249;52.128;9.986;2023-02-25T04:26:27;4.40;99.90
12370;DHT22;6249;52.128;9.986;2023-02-25T04:29:48;4.40;99.90
12370;DHT22;6249;52.128;9.986;2023-02-25T04:33:10;4.40;99.90
12370;DHT22;6249;52.128;9.986;2023-02-25T04:36:35;4.10;99.90
12370;DHT22;6249;52.128;9.986;2023-02-25T04:39:55;4.00;99.90
12370;DHT22;6249;52.128;9.986;2023-02-25T04:43:18;3.90;99.90
12370;DHT22;6249;52.128;9.986;2023-02-25T04:46:40;3.80;99.90
12370;DHT22;6249;52.128;9.986;2023-02-25T04:50:05;3.70;99.90
12370;DHT22;6249;52.128;9.986;2023-02-25T04:53:28;3.90;99.90
12370;DHT22;6249;52.128;9.986;2023-02-25T04:56:48;3.80;99.90
12370;DHT22;6249;52.128;9.986;2023-02-25T05:00:18;3.90;99.90
12370;DHT22;6249;52.128;9.986;2023-02-25T05:03:39;4.10;99.90
12370;DHT22;6249;52.128;9.986;2023-02-25T05:07:02;4.10;99.90
12370;DHT22;6249;52.128;9.986;2023-02-25T05:10:25;4.10;99.90
12370;DHT22;6249;52.128;9.986;2023-02-25T05:13:46;4.00;99.90
12370;DHT22;6249;52.128;9.986;2023-02-25T05:17:09;4.00;99.90
12370;DHT22;6249;52.128;9.986;2023-02-25T05:20:32;3.90;99.90
12370;DHT22;6249;52.128;9.986;2023-02-25T05:23:55;4.00;99.90
12370;DHT22;6249;52.128;9.986;2023-02-25T05:27:18;4.10;99.90
12370;DHT22;6249;52.128;9.986;2023-02-25T05:30:39;4.00;99.90
12370;DHT22;6249;52.128;9.986;2023-02-25T05:33:59;4.00;99.90
12370;DHT22;6249;52.128;9.986;2023-02-25T05:37:22;3.90;99.90
12370;DHT22;6249;52.128;9.986;2023-02-25T05:40:43;3.90;99.90
12370;DHT22;6249;52.128;9.986;2023-02-25T05:44:04;4.00;99.90
12370;DHT22;6249;52.128;9.986;2023-02-25T05:47:25;4.00;99.90
12370;DHT22;6249;52.128;9.986;2023-02-25T05:50:45;4.00;99.90
12370;DHT22;6249;52.128;9.986;2023-02-25T05:54:06;4.00;99.90
12370;DHT22;6249;52.128;9.986;2023-02-25T05:57:27;4.00;99.90
12370;DHT22;6249;52.128;9.986;2023-02-25T06:00:47;4.00;99.90
12370;DHT22;6249;52.128;9.986;2023-02-25T06:04:08;4.10;99.90
12370;DHT22;6249;52.128;9.986;2023-02-25T06:07:29;3.90;99.90
12370;DHT22;6249;52.128;9.986;2023-02-25T06:10:51;3.90;99.90
12370;DHT22;6249;52.128;9.986;2023-02-25T06:14:11;4.00;99.90
12370;DHT22;6249;52.128;9.986;2023-02-25T06:17:32;4.00;99.90
12370;DHT22;6249;52.128;9.986;2023-02-25T06:20:53;4.00;99.90
12370;DHT22;6249;52.128;9.986;2023-02-25T06:24:16;4.00;99.90
12370;DHT22;6249;52.128;9.986;2023-02-25T06:27:36;4.00;99.90
12370;DHT22;6249;52.128;9.986;2023-02-25T06:30:57;3.90;99.90
12370;DHT22;6249;52.128;9.986;2023-02-25T06:34:17;3.70;99.90
12370;DHT22;6249;52.128;9.986;2023-02-25T06:37:38;3.70;99.90
12370;DHT22;6249;52.128;9.986;2023-02-25T06:41:09;3.90;99.90
12370;DHT22;6249;52.128;9.986;2023-02-25T06:44:32;3.80;99.90
12370;DHT22;6249;52.128;9.986;2023-02-25T06:47:55;3.80;99.90
12370;DHT22;6249;52.128;9.986;2023-02-25T06:51:16;3.80;99.90
12370;DHT22;6249;52.128;9.986;2023-02-25T06:54:36;3.80;99.90
12370;DHT22;6249;52.128;9.986;2023-02-25T06:57:59;3.60;99.90
12370;DHT22;6249;52.128;9.986;2023-02-25T07:01:20;3.50;99.90
12370;DHT22;6249;52.128;9.986;2023-02-25T07:04:43;3.60;99.90
12370;DHT22;6249;52.128;9.986;2023-02-25T07:08:04;3.50;99.90
12370;DHT22;6249;52.128;9.986;2023-02-25T07:11:31;3.60;99.90
12370;DHT22;6249;52.128;9.986;2023-02-25T07:14:54;3.60;99.90
12370;DHT22;6249;52.128;9.986;2023-02-25T07:18:14;3.60;99.90
12370;DHT22;6249;52.128;9.986;2023-02-25T07:21:40;3.70;99.90
12370;DHT22;6249;52.128;9.986;2023-02-25T07:25:03;3.70;99.90
12370;DHT22;6249;52.128;9.986;2023-02-25T07:28:26;3.70;99.90
12370;DHT22;6249;52.128;9.986;2023-02-25T07:31:49;3.70;99.90
12370;DHT22;6249;52.128;9.986;2023-02-25T07:35:12;3.70;99.90
12370;DHT22;6249;52.128;9.986;2023-02-25T07:38:33;3.70;99.90
12370;DHT22;6249;52.128;9.986;2023-02-25T07:41:53;3.80;99.90
12370;DHT22;6249;52.128;9.986;2023-02-25T07:45:14;3.80;99.90
12370;DHT22;6249;52.128;9.986;2023-02-25T07:48:34;3.80;99.90
12370;DHT22;6249;52.128;9.986;2023-02-25T07:51:57;3.80;99.90
12370;DHT22;6249;52.128;9.986;2023-02-25T07:55:22;3.90;99.90
12370;DHT22;6249;52.128;9.986;2023-02-25T07:58:48;3.90;99.90
12370;DHT22;6249;52.128;9.986;2023-02-25T08:02:10;3.90;99.90
12370;DHT22;6249;52.128;9.986;2023-02-25T08:05:35;4.10;99.90
12370;DHT22;6249;52.128;9.986;2023-02-25T08:08:56;4.10;99.90
12370;DHT22;6249;52.128;9.986;2023-02-25T08:12:17;4.10;99.90
12370;DHT22;6249;52.128;9.986;2023-02-25T08:15:42;4.10;99.90
12370;DHT22;6249;52.128;9.986;2023-02-25T08:19:04;4.20;99.90
12370;DHT22;6249;52.128;9.986;2023-02-25T08:22:25;4.30;99.90
12370;DHT22;6249;52.128;9.986;2023-02-25T08:25:54;4.50;99.90
12370;DHT22;6249;52.128;9.986;2023-02-25T08:29:15;4.60;99.90
12370;DHT22;6249;52.128;9.986;2023-02-25T08:32:35;4.80;99.90
12370;DHT22;6249;52.128;9.986;2023-02-25T08:36:08;4.80;99.90
12370;DHT22;6249;52.128;9.986;2023-02-25T08:39:29;4.80;99.90
12370;DHT22;6249;52.128;9.986;2023-02-25T08:42:50;4.90;99.90
12370;DHT22;6249;52.128;9.986;2023-02-25T08:46:13;5.10;99.90
12370;DHT22;6249;52.128;9.986;2023-02-25T08:49:33;5.30;99.90
12370;DHT22;6249;52.128;9.986;2023-02-25T08:52:57;5.60;99.90
12370;DHT22;6249;52.128;9.986;2023-02-25T08:56:21;5.80;99.90
12370;DHT22;6249;52.128;9.986;2023-02-25T08:59:44;6.10;99.90
12370;DHT22;6249;52.128;9.986;2023-02-25T09:03:04;6.30;99.90
12370;DHT22;6249;52.128;9.986;2023-02-25T09:06:26;6.50;99.90
12370;DHT22;6249;52.128;9.986;2023-02-25T09:09:49;6.80;99.90
12370;DHT22;6249;52.128;9.986;2023-02-25T09:13:10;6.80;99.90
12370;DHT22;6249;52.128;9.986;2023-02-25T09:16:33;6.80;99.90
12370;DHT22;6249;52.128;9.986;2023-02-25T09:20:01;7.10;99.90
12370;DHT22;6249;52.128;9.986;2023-02-25T09:23:28;7.30;99.90
12370;DHT22;6249;52.128;9.986;2023-02-25T09:26:51;7.90;99.90
12370;DHT22;6249;52.128;9.986;2023-02-25T09:30:12;7.90;99.90
12370;DHT22;6249;52.128;9.986;2023-02-25T09:33:34;7.50;99.80
12370;DHT22;6249;52.128;9.986;2023-02-25T09:36:55;7.20;99.90
12370;DHT22;6249;52.128;9.986;2023-02-25T09:40:17;7.10;99.90
12370;DHT22;6249;52.128;9.986;2023-02-25T09:43:42;6.90;99.90
12370;DHT22;6249;52.128;9.986;2023-02-25T09:50:35;6.70;99.90
12370;DHT22;6249;52.128;9.986;2023-02-25T09:54:21;6.60;99.90
12370;DHT22;6249;52.128;9.986;2023-02-25T09:57:59;6.50;99.90
12370;DHT22;6249;52.128;9.986;2023-02-25T10:05:02;6.30;99.90
12370;DHT22;6249;52.128;9.986;2023-02-25T10:08:45;6.10;99.90
12370;DHT22;6249;52.128;9.986;2023-02-25T10:12:22;6.00;99.90
12370;DHT22;6249;52.128;9.986;2023-02-25T10:16:01;6.00;99.90
12370;DHT22;6249;52.128;9.986;2023-02-25T10:26:59;5.90;99.90
12370;DHT22;6249;52.128;9.986;2023-02-25T10:30:27;6.10;99.90
12370;DHT22;6249;52.128;9.986;2023-02-25T10:33:52;6.00;99.90
12370;DHT22;6249;52.128;9.986;2023-02-25T10:37:23;6.50;99.90
12370;DHT22;6249;52.128;9.986;2023-02-25T10:40:46;6.70;99.90
12370;DHT22;6249;52.128;9.986;2023-02-25T10:44:09;6.90;99.90
12370;DHT22;6249;52.128;9.986;2023-02-25T10:47:37;7.00;99.90
12370;DHT22;6249;52.128;9.986;2023-02-25T10:51:12;6.80;99.90
12370;DHT22;6249;52.128;9.986;2023-02-25T10:54:43;6.60;99.90
12370;DHT22;6249;52.128;9.986;2023-02-25T10:58:04;6.40;99.90
12370;DHT22;6249;52.128;9.986;2023-02-25T11:01:35;6.40;99.90
12370;DHT22;6249;52.128;9.986;2023-02-25T11:04:59;6.50;99.90
12370;DHT22;6249;52.128;9.986;2023-02-25T11:08:30;6.60;99.90
12370;DHT22;6249;52.128;9.986;2023-02-25T11:12:08;6.50;99.90
12370;DHT22;6249;52.128;9.986;2023-02-25T11:15:38;6.40;99.90
12370;DHT22;6249;52.128;9.986;2023-02-25T11:19:21;6.80;99.90
12370;DHT22;6249;52.128;9.986;2023-02-25T11:22:45;7.10;99.90
12370;DHT22;6249;52.128;9.986;2023-02-25T11:26:07;7.20;99.90
12370;DHT22;6249;52.128;9.986;2023-02-25T11:29:33;6.90;99.90
12370;DHT22;6249;52.128;9.986;2023-02-25T11:33:03;6.80;99.90
12370;DHT22;6249;52.128;9.986;2023-02-25T11:36:30;6.90;99.90
12370;DHT22;6249;52.128;9.986;2023-02-25T11:39:53;7.30;99.90
12370;DHT22;6249;52.128;9.986;2023-02-25T11:46:43;7.90;99.90
12370;DHT22;6249;52.128;9.986;2023-02-25T11:50:22;7.90;99.90
12370;DHT22;6249;52.128;9.986;2023-02-25T11:57:47;8.10;99.90
12370;DHT22;6249;52.128;9.986;2023-02-25T12:23:43;6.40;99.90
12370;DHT22;6249;52.128;9.986;2023-02-25T12:57:02;5.70;99.90
12370;DHT22;6249;52.128;9.986;2023-02-25T13:08:20;5.50;99.90
12370;DHT22;6249;52.128;9.986;2023-02-25T13:15:17;5.50;99.90
12370;DHT22;6249;52.128;9.986;2023-02-25T13:22:33;5.90;99.90
12370;DHT22;6249;52.128;9.986;2023-02-25T13:40:35;6.90;99.90
12370;DHT22;6249;52.128;9.986;2023-02-25T14:06:13;6.10;98.40
12370;DHT22;6249;52.128;9.986;2023-02-25T14:17:06;6.70;98.60
12370;DHT22;6249;52.128;9.986;2023-02-25T14:32:01;8.10;93.30
12370;DHT22;6249;52.128;9.986;2023-02-25T14:43:02;7.30;94.00
12370;DHT22;6249;52.128;9.986;2023-02-25T15:14:47;8.20;93.40
12370;DHT22;6249;52.128;9.986;2023-02-25T15:21:47;8.00;92.90
12370;DHT22;6249;52.128;9.986;2023-02-25T15:28:48;7.30;94.20
12370;DHT22;6249;52.128;9.986;2023-02-25T15:32:25;7.30;94.40
12370;DHT22;6249;52.128;9.986;2023-02-25T15:35:54;7.50;93.30
12370;DHT22;6249;52.128;9.986;2023-02-25T15:39:47;7.40;92.60
12370;DHT22;6249;52.128;9.986;2023-02-25T15:50:01;7.00;92.00
12370;DHT22;6249;52.128;9.986;2023-02-25T15:56:49;6.30;93.70
12370;DHT22;6249;52.128;9.986;2023-02-25T16:08:17;5.30;97.50
12370;DHT22;6249;52.128;9.986;2023-02-25T16:11:45;5.10;97.60
12370;DHT22;6249;52.128;9.986;2023-02-25T16:15:10;5.50;97.20
12370;DHT22;6249;52.128;9.986;2023-02-25T16:18:39;5.40;97.30
12370;DHT22;6249;52.128;9.986;2023-02-25T16:22:16;5.30;97.70
12370;DHT22;6249;52.128;9.986;2023-02-25T16:36:31;4.90;98.10
12370;DHT22;6249;52.128;9.986;2023-02-25T16:39:59;5.10;96.90
12370;DHT22;6249;52.128;9.986;2023-02-25T16:43:23;5.00;97.40
12370;DHT22;6249;52.128;9.986;2023-02-25T16:46:51;4.80;97.40
12370;DHT22;6249;52.128;9.986;2023-02-25T16:50:13;4.70;96.20
12370;DHT22;6249;52.128;9.986;2023-02-25T16:53:41;4.50;96.00
12370;DHT22;6249;52.128;9.986;2023-02-25T16:57:05;4.50;95.30
12370;DHT22;6249;52.128;9.986;2023-02-25T17:00:26;4.40;95.90
12370;DHT22;6249;52.128;9.986;2023-02-25T17:03:50;4.40;96.00
12370;DHT22;6249;52.128;9.986;2023-02-25T17:07:23;4.30;98.70
12370;DHT22;6249;52.128;9.986;2023-02-25T17:10:50;4.10;99.90
12370;DHT22;6249;52.128;9.986;2023-02-25T17:14:14;3.80;99.90
12370;DHT22;6249;52.128;9.986;2023-02-25T17:17:37;3.70;99.90
12370;DHT22;6249;52.128;9.986;2023-02-25T17:24:42;3.50;99.90
12370;DHT22;6249;52.128;9.986;2023-02-25T17:28:04;3.40;99.90
12370;DHT22;6249;52.128;9.986;2023-02-25T17:31:27;3.40;99.90
12370;DHT22;6249;52.128;9.986;2023-02-25T17:34:50;3.50;99.90
12370;DHT22;6249;52.128;9.986;2023-02-25T17:38:17;3.50;99.90
12370;DHT22;6249;52.128;9.986;2023-02-25T17:41:40;3.50;99.90
12370;DHT22;6249;52.128;9.986;2023-02-25T17:45:03;3.50;99.90
12370;DHT22;6249;52.128;9.986;2023-02-25T17:48:29;3.50;99.90
12370;DHT22;6249;52.128;9.986;2023-02-25T17:51:58;3.50;99.90
12370;DHT22;6249;52.128;9.986;2023-02-25T17:55:33;3.50;99.90
12370;DHT22;6249;52.128;9.986;2023-02-25T17:58:59;3.50;99.90
12370;DHT22;6249;52.128;9.986;2023-02-25T18:02:33;3.60;99.90
12370;DHT22;6249;52.128;9.986;2023-02-25T18:05:56;3.50;99.90
12370;DHT22;6249;52.128;9.986;2023-02-25T18:13:01;3.60;99.90
12370;DHT22;6249;52.128;9.986;2023-02-25T18:19:46;3.40;99.90
12370;DHT22;6249;52.128;9.986;2023-02-25T18:23:24;3.30;99.90
12370;DHT22;6249;52.128;9.986;2023-02-25T18:30:26;3.00;99.90
12370;DHT22;6249;52.128;9.986;2023-02-25T18:33:50;2.80;99.90
12370;DHT22;6249;52.128;9.986;2023-02-25T18:37:18;2.80;99.90
12370;DHT22;6249;52.128;9.986;2023-02-25T18:40:39;2.80;99.90
12370;DHT22;6249;52.128;9.986;2023-02-25T18:44:00;2.80;99.90
12370;DHT22;6249;52.128;9.986;2023-02-25T18:47:23;2.70;99.90
12370;DHT22;6249;52.128;9.986;2023-02-25T18:50:51;2.80;99.90
12370;DHT22;6249;52.128;9.986;2023-02-25T18:54:15;2.60;99.90
12370;DHT22;6249;52.128;9.986;2023-02-25T18:57:36;2.50;99.90
12370;DHT22;6249;52.128;9.986;2023-02-25T19:00:57;2.50;99.90
12370;DHT22;6249;52.128;9.986;2023-02-25T19:04:23;2.50;99.90
12370;DHT22;6249;52.128;9.986;2023-02-25T19:07:44;2.40;99.90
12370;DHT22;6249;52.128;9.986;2023-02-25T19:11:08;2.30;99.90
12370;DHT22;6249;52.128;9.986;2023-02-25T19:14:30;2.20;99.90
12370;DHT22;6249;52.128;9.986;2023-02-25T19:17:50;2.00;99.90
12370;DHT22;6249;52.128;9.986;2023-02-25T19:21:18;2.00;99.90
12370;DHT22;6249;52.128;9.986;2023-02-25T19:24:44;2.00;99.90
12370;DHT22;6249;52.128;9.986;2023-02-25T19:28:06;2.00;99.90
12370;DHT22;6249;52.128;9.986;2023-02-25T19:31:29;1.90;99.90
12370;DHT22;6249;52.128;9.986;2023-02-25T19:34:50;1.80;99.90
12370;DHT22;6249;52.128;9.986;2023-02-25T19:38:14;1.80;99.90
12370;DHT22;6249;52.128;9.986;2023-02-25T19:41:34;1.80;99.90
12370;DHT22;6249;52.128;9.986;2023-02-25T19:44:56;1.70;99.90
12370;DHT22;6249;52.128;9.986;2023-02-25T19:48:17;1.70;99.90
12370;DHT22;6249;52.128;9.986;2023-02-25T19:51:37;1.60;99.90
12370;DHT22;6249;52.128;9.986;2023-02-25T19:54:59;1.50;99.90
12370;DHT22;6249;52.128;9.986;2023-02-25T19:58:20;1.50;99.90
12370;DHT22;6249;52.128;9.986;2023-02-25T20:01:42;1.50;99.90
12370;DHT22;6249;52.128;9.986;2023-02-25T20:05:03;1.50;99.90
12370;DHT22;6249;52.128;9.986;2023-02-25T20:08:25;1.40;99.90
12370;DHT22;6249;52.128;9.986;2023-02-25T20:11:45;1.40;99.90
12370;DHT22;6249;52.128;9.986;2023-02-25T20:15:09;1.40;99.90
12370;DHT22;6249;52.128;9.986;2023-02-25T20:18:30;1.40;99.90
12370;DHT22;6249;52.128;9.986;2023-02-25T20:21:51;1.30;99.90
12370;DHT22;6249;52.128;9.986;2023-02-25T20:25:12;1.40;99.90
12370;DHT22;6249;52.128;9.986;2023-02-25T20:28:34;1.30;99.90
12370;DHT22;6249;52.128;9.986;2023-02-25T20:31:56;1.30;99.90
12370;DHT22;6249;52.128;9.986;2023-02-25T20:35:20;1.30;99.90
12370;DHT22;6249;52.128;9.986;2023-02-25T20:38:50;1.30;99.90
12370;DHT22;6249;52.128;9.986;2023-02-25T20:42:19;1.30;99.90
12370;DHT22;6249;52.128;9.986;2023-02-25T20:45:40;1.30;99.90
12370;DHT22;6249;52.128;9.986;2023-02-25T20:49:04;1.50;99.90
12370;DHT22;6249;52.128;9.986;2023-02-25T20:52:26;1.40;99.90
12370;DHT22;6249;52.128;9.986;2023-02-25T20:55:47;1.50;99.90
12370;DHT22;6249;52.128;9.986;2023-02-25T20:59:09;1.40;99.90
12370;DHT22;6249;52.128;9.986;2023-02-25T21:02:30;1.50;99.90
12370;DHT22;6249;52.128;9.986;2023-02-25T21:05:53;1.40;99.90
12370;DHT22;6249;52.128;9.986;2023-02-25T21:09:13;1.40;99.90
12370;DHT22;6249;52.128;9.986;2023-02-25T21:12:34;1.50;99.90
12370;DHT22;6249;52.128;9.986;2023-02-25T21:16:01;1.50;99.90
12370;DHT22;6249;52.128;9.986;2023-02-25T21:19:28;1.60;99.90
12370;DHT22;6249;52.128;9.986;2023-02-25T21:22:51;1.70;99.90
12370;DHT22;6249;52.128;9.986;2023-02-25T21:26:12;1.70;99.90
12370;DHT22;6249;52.128;9.986;2023-02-25T21:29:33;1.70;99.90
12370;DHT22;6249;52.128;9.986;2023-02-25T21:32:54;1.70;99.90
12370;DHT22;6249;52.128;9.986;2023-02-25T21:36:17;1.60;99.90
12370;DHT22;6249;52.128;9.986;2023-02-25T21:39:40;1.60;99.90
12370;DHT22;6249;52.128;9.986;2023-02-25T21:43:01;1.60;99.90
12370;DHT22;6249;52.128;9.986;2023-02-25T21:46:25;1.60;99.90
12370;DHT22;6249;52.128;9.986;2023-02-25T21:49:46;1.60;99.90
12370;DHT22;6249;52.128;9.986;2023-02-25T21:53:09;1.60;99.90
12370;DHT22;6249;52.128;9.986;2023-02-25T21:56:30;1.60;99.90
12370;DHT22;6249;52.128;9.986;2023-02-25T21:59:51;1.50;99.90
12370;DHT22;6249;52.128;9.986;2023-02-25T22:03:13;1.60;99.90
12370;DHT22;6249;52.128;9.986;2023-02-25T22:06:36;1.70;99.90
12370;DHT22;6249;52.128;9.986;2023-02-25T22:10:02;1.70;99.90
12370;DHT22;6249;52.128;9.986;2023-02-25T22:13:22;1.60;99.90
12370;DHT22;6249;52.128;9.986;2023-02-25T22:16:45;1.50;99.90
12370;DHT22;6249;52.128;9.986;2023-02-25T22:20:09;1.50;99.90
12370;DHT22;6249;52.128;9.986;2023-02-25T22:23:30;1.40;99.90
12370;DHT22;6249;52.128;9.986;2023-02-25T22:26:51;1.40;99.90
12370;DHT22;6249;52.128;9.986;2023-02-25T22:30:12;1.40;99.90
12370;DHT22;6249;52.128;9.986;2023-02-25T22:33:32;1.40;99.90
12370;DHT22;6249;52.128;9.986;2023-02-25T22:36:57;1.50;99.90
12370;DHT22;6249;52.128;9.986;2023-02-25T22:40:18;1.40;99.90
12370;DHT22;6249;52.128;9.986;2023-02-25T22:43:39;1.40;99.90
12370;DHT22;6249;52.128;9.986;2023-02-25T22:46:59;1.50;99.90
12370;DHT22;6249;52.128;9.986;2023-02-25T22:50:20;1.40;99.90
12370;DHT22;6249;52.128;9.986;2023-02-25T22:53:43;1.40;99.90
12370;DHT22;6249;52.128;9.986;2023-02-25T22:57:04;1.40;99.90
12370;DHT22;6249;52.128;9.986;2023-02-25T23:00:36;1.40;99.90
12370;DHT22;6249;52.128;9.986;2023-02-25T23:04:00;1.40;99.90
12370;DHT22;6249;52.128;9.986;2023-02-25T23:07:21;1.30;99.90
12370;DHT22;6249;52.128;9.986;2023-02-25T23:10:46;1.30;99.90
12370;DHT22;6249;52.128;9.986;2023-02-25T23:14:07;1.30;99.90
12370;DHT22;6249;52.128;9.986;2023-02-25T23:17:30;1.20;99.90
12370;DHT22;6249;52.128;9.986;2023-02-25T23:20:50;1.10;99.90
12370;DHT22;6249;52.128;9.986;2023-02-25T23:24:16;1.00;99.90
12370;DHT22;6249;52.128;9.986;2023-02-25T23:27:38;0.90;99.90
12370;DHT22;6249;52.128;9.986;2023-02-25T23:30:59;0.80;99.90
12370;DHT22;6249;52.128;9.986;2023-02-25T23:34:21;0.70;99.90
12370;DHT22;6249;52.128;9.986;2023-02-25T23:37:45;0.60;99.90
12370;DHT22;6249;52.128;9.986;2023-02-25T23:41:06;0.50;99.90
12370;DHT22;6249;52.128;9.986;2023-02-25T23:44:27;0.50;99.90
12370;DHT22;6249;52.128;9.986;2023-02-25T23:47:52;0.40;99.90
12370;DHT22;6249;52.128;9.986;2023-02-25T23:51:13;0.30;99.90
12370;DHT22;6249;52.128;9.986;2023-02-25T23:54:36;0.20;99.90
12370;DHT22;6249;52.128;9.986;2023-02-25T23:57:56;0.20;99.90
